Portada
METAR-TAF:

METAR-TAF

Aeroports :

Pantel·leria, Itàlia

latitud: 36-49N, longitud: 011-58E, altitud: 191 m

Observació

L'informe es va fer fa 3 hores i 46 minuts, a les 16:50 UTC
Vent 6 kt del Oest/Nord-Oest
Temperatura 13°C
Humitat 88%
Pressió 1014 hPa
Visibilitat 10 km o més
Núvols disperses a una alçada de 1500 ft

METAR: LICG 301650Z 29006KT 9999 SCT015 13/11 Q1014

Hora: 22:36 (20:36 UTC)

Pronòstic

L'informe es va fer fa 3 hores i 36 minuts, a les 17:00 UTC
Pronòstic vàlid del 30 a les 18 UTC al 31 a les 03 UTC
Vent 14 kt del Oest/Nord-Oest
Visibilitat 10 km o més
Núvols disperses a una alçada de 1500 ft
Evolucionant progressivament
l' 30 a les 18 UTC al 30 a les 20 UTC
Vent 5 kt amb direcció variable

TAF: LICG 301700Z 3018/3103 30014KT 9999 SCT015 BECMG 3018/3020 VRB05KT

Observacions i pronòstics meteorològics de més de 4000 aeroports (METAR i TAF).

Les estacions disponibles són els punts grocs i vermells al mapa.

Posi el ratolí al punt desitjat per veure el nom de l'estació.

Feu clic per veure les observacions i els pronòstics meteorològics.

Per canviar el mapa: feu clic els botons verds amb una creu de color negre per apropar; al botó verd amb un guió per allunyar la imatge; o en les fletxes verdes per a mapes adjacents.


METAR-TAF: